createdAt,value
2018-12-14T16:43:45.491Z,2.50
2018-12-14T16:46:12.333Z,2.40
2018-12-14T16:48:39.229Z,2.50
2018-12-14T16:51:06.117Z,2.60
2018-12-14T16:53:34.964Z,2.80
2018-12-14T16:56:01.815Z,2.80
2018-12-14T16:58:28.655Z,2.80
2018-12-14T17:00:55.554Z,2.90
2018-12-14T17:03:22.484Z,2.70
2018-12-14T17:05:49.435Z,2.80
2018-12-14T17:08:16.358Z,2.60
2018-12-14T17:10:43.216Z,2.50
2018-12-14T17:13:10.237Z,2.30
2018-12-14T17:15:37.106Z,2.10
2018-12-14T17:18:04.718Z,2.00
2018-12-14T17:20:31.804Z,2.00
2018-12-14T17:22:58.707Z,2.10
2018-12-14T17:25:25.553Z,2.30
2018-12-14T17:27:52.421Z,2.30
2018-12-14T17:30:19.319Z,2.40
2018-12-14T17:32:46.175Z,2.40
2018-12-14T17:35:13.061Z,2.30
2018-12-14T17:37:39.930Z,2.20
2018-12-14T17:40:06.861Z,2.20
2018-12-14T17:42:34.020Z,2.30
2018-12-14T17:45:00.871Z,2.50
2018-12-14T17:47:27.718Z,2.30
2018-12-14T17:49:54.623Z,2.20
2018-12-14T17:52:21.523Z,2.30
2018-12-14T17:54:48.370Z,2.40
2018-12-14T17:57:15.217Z,2.50
2018-12-14T17:59:42.102Z,2.40
2018-12-14T18:02:08.962Z,2.40
2018-12-14T18:04:35.817Z,2.30
2018-12-14T18:07:02.710Z,2.30
2018-12-14T18:09:29.552Z,2.20
2018-12-14T18:11:56.411Z,2.00
2018-12-14T18:14:23.335Z,2.10
2018-12-14T18:16:50.255Z,2.10
2018-12-14T18:19:19.002Z,2.10
2018-12-14T18:21:45.908Z,2.10
2018-12-14T18:24:12.751Z,2.10
2018-12-14T18:26:39.640Z,2.00
2018-12-14T18:29:06.557Z,2.10
2018-12-14T18:31:33.414Z,2.20
2018-12-14T18:34:00.310Z,2.00
2018-12-14T18:36:27.160Z,1.80
2018-12-14T18:38:54.043Z,1.90
2018-12-14T18:41:20.935Z,2.10
2018-12-14T18:43:47.802Z,2.40
2018-12-14T18:46:14.654Z,2.30
2018-12-14T18:48:41.558Z,2.30
2018-12-14T18:51:08.411Z,2.20
2018-12-14T18:53:35.333Z,2.20
2018-12-14T18:56:02.954Z,2.20
2018-12-14T18:58:29.802Z,2.40
2018-12-14T19:00:56.702Z,2.50
2018-12-14T19:03:23.607Z,2.40
2018-12-14T19:05:50.457Z,2.20
2018-12-14T19:08:17.369Z,2.10
2018-12-14T19:10:44.278Z,2.20
2018-12-14T19:13:11.133Z,2.10
2018-12-14T19:15:38.044Z,2.10
2018-12-14T19:18:04.899Z,2.00
2018-12-14T19:20:31.754Z,2.00
2018-12-14T19:22:58.653Z,1.90
2018-12-14T19:25:25.510Z,2.10
2018-12-14T19:27:52.363Z,2.10
2018-12-14T19:30:19.268Z,2.10
2018-12-14T19:32:46.120Z,1.80
2018-12-14T19:35:13.022Z,1.80
2018-12-14T19:37:41.518Z,1.90
2018-12-14T19:40:08.498Z,1.80
2018-12-14T19:42:35.354Z,1.90
2018-12-14T19:45:02.890Z,2.00
2018-12-14T19:47:29.920Z,2.10
2018-12-14T19:49:56.777Z,2.20
2018-12-14T19:52:23.676Z,2.30
2018-12-14T19:54:50.537Z,2.10
2018-12-14T19:57:17.397Z,1.90
2018-12-14T19:59:44.315Z,1.80
2018-12-14T20:02:11.177Z,1.90
2018-12-14T20:04:38.077Z,1.90
2018-12-14T20:07:04.981Z,1.80
2018-12-14T20:09:32.050Z,1.80
2018-12-14T20:11:58.937Z,2.00
2018-12-14T20:14:25.825Z,1.90
2018-12-14T20:16:52.691Z,2.00
2018-12-14T20:19:19.582Z,2.00
2018-12-14T20:21:46.425Z,2.00
2018-12-14T20:24:13.271Z,1.90
2018-12-14T20:26:40.166Z,2.00
2018-12-14T20:29:07.014Z,2.00
2018-12-14T20:31:33.862Z,1.90
2018-12-14T20:34:00.759Z,1.80
2018-12-14T20:36:27.889Z,1.80
2018-12-14T20:38:54.747Z,1.60
2018-12-14T20:41:21.601Z,1.60
2018-12-14T20:43:48.528Z,1.70
2018-12-14T20:46:19.298Z,1.70
2018-12-14T20:48:44.290Z,1.60
2018-12-14T20:51:11.206Z,1.50
2018-12-14T20:53:38.103Z,1.40
2018-12-14T20:56:05.013Z,1.50
2018-12-14T20:58:31.911Z,1.60
2018-12-14T21:00:58.766Z,1.70
2018-12-14T21:03:25.663Z,1.60
2018-12-14T21:05:52.526Z,1.70
2018-12-14T21:08:19.381Z,1.70
2018-12-14T21:10:46.269Z,1.70
2018-12-14T21:13:13.121Z,1.90
2018-12-14T21:15:40.008Z,1.90
2018-12-14T21:18:06.853Z,2.00
2018-12-14T21:20:33.741Z,1.90
2018-12-14T21:23:00.639Z,1.90
2018-12-14T21:25:27.800Z,2.00
2018-12-14T21:27:54.680Z,2.00
2018-12-14T21:30:21.535Z,2.00
2018-12-14T21:32:48.441Z,1.90
2018-12-14T21:35:15.289Z,1.80
2018-12-14T21:37:42.143Z,1.80
2018-12-14T21:40:09.057Z,1.80
2018-12-14T21:42:35.935Z,1.70
2018-12-14T21:45:02.807Z,1.80
2018-12-14T21:47:29.707Z,1.90
2018-12-14T21:49:56.547Z,2.00
2018-12-14T21:52:23.450Z,2.20
2018-12-14T21:54:50.301Z,2.20
2018-12-14T21:57:17.150Z,2.00
2018-12-14T21:59:44.041Z,1.80
2018-12-14T22:02:10.907Z,1.80
2018-12-14T22:04:37.794Z,1.70
2018-12-14T22:07:04.666Z,1.60
2018-12-14T22:09:31.569Z,1.40
2018-12-14T22:11:58.438Z,1.40
2018-12-14T22:14:25.284Z,1.40
2018-12-14T22:16:52.198Z,1.40
2018-12-14T22:19:19.065Z,1.50
2018-12-14T22:21:46.039Z,1.50
2018-12-14T22:24:12.900Z,1.60
2018-12-14T22:26:39.756Z,1.70
2018-12-14T22:29:06.933Z,1.90
2018-12-14T22:31:33.790Z,1.80
2018-12-14T22:34:00.659Z,1.70
2018-12-14T22:36:27.564Z,1.60
2018-12-14T22:38:54.442Z,1.50
2018-12-14T22:41:21.471Z,1.50
2018-12-14T22:43:48.379Z,1.70
2018-12-14T22:46:15.233Z,1.80
2018-12-14T22:48:42.126Z,1.80
2018-12-14T22:51:09.020Z,1.90
2018-12-14T22:53:35.861Z,2.00
2018-12-14T22:56:02.760Z,1.90
2018-12-14T22:58:29.621Z,2.10
2018-12-14T23:00:56.512Z,2.20
2018-12-14T23:03:23.415Z,2.20
2018-12-14T23:05:50.272Z,2.20
2018-12-14T23:08:17.164Z,2.10
2018-12-14T23:10:44.018Z,1.90
2018-12-14T23:13:10.910Z,1.90
